createdAt,value
2022-09-17T00:01:26.629Z,1.00
2022-09-17T00:06:25.810Z,0.80
2022-09-17T00:11:29.028Z,1.37
2022-09-17T00:16:36.475Z,0.60
2022-09-17T00:21:34.075Z,1.00
2022-09-17T00:26:32.986Z,1.20
2022-09-17T00:31:31.335Z,0.85
2022-09-17T00:36:28.945Z,1.02
2022-09-17T00:41:32.178Z,0.70
2022-09-17T00:46:40.026Z,1.00
2022-09-17T00:51:41.365Z,0.80
2022-09-17T00:56:41.816Z,0.80
2022-09-17T01:01:39.322Z,0.90
2022-09-17T01:06:41.974Z,0.82
2022-09-17T01:11:57.595Z,0.90
2022-09-17T01:17:34.053Z,0.80
2022-09-17T01:23:15.130Z,1.10
2022-09-17T01:28:29.615Z,1.17
2022-09-17T01:33:48.931Z,1.17
2022-09-17T01:38:50.285Z,1.05
2022-09-17T01:44:12.850Z,1.17
2022-09-17T01:49:13.105Z,1.08
2022-09-17T01:54:42.429Z,0.98
2022-09-17T02:00:16.018Z,1.25
2022-09-17T02:05:30.819Z,1.00
2022-09-17T02:10:35.275Z,0.95
2022-09-17T02:15:44.318Z,1.58
2022-09-17T02:20:50.350Z,1.23
2022-09-17T02:26:07.655Z,0.93
2022-09-17T02:31:06.056Z,1.20
2022-09-17T02:36:05.492Z,0.98
2022-09-17T02:41:23.368Z,1.35
2022-09-17T02:46:26.551Z,1.02
2022-09-17T02:51:54.053Z,0.98
2022-09-17T02:57:07.592Z,1.08
2022-09-17T03:02:36.018Z,0.95
2022-09-17T03:07:34.976Z,1.00
2022-09-17T03:12:32.836Z,1.20
2022-09-17T03:17:33.616Z,1.10
2022-09-17T03:22:32.113Z,1.50
2022-09-17T03:27:32.582Z,1.30
2022-09-17T03:32:32.068Z,1.47
2022-09-17T03:37:33.872Z,1.48
2022-09-17T03:42:33.264Z,1.20
2022-09-17T03:47:31.753Z,1.30
2022-09-17T03:52:31.138Z,1.40
2022-09-17T03:57:29.226Z,1.40
2022-09-17T04:02:27.803Z,1.10
2022-09-17T04:07:26.538Z,1.90
2022-09-17T04:12:26.176Z,1.77
2022-09-17T04:17:28.255Z,1.20
2022-09-17T04:22:27.426Z,1.23
2022-09-17T04:27:25.851Z,1.20
2022-09-17T04:32:24.615Z,1.55
2022-09-17T04:37:25.864Z,1.33
2022-09-17T04:42:25.396Z,1.60
2022-09-17T04:47:22.802Z,1.20
2022-09-17T04:52:21.155Z,1.15
2022-09-17T04:57:29.680Z,1.40
2022-09-17T05:02:32.796Z,1.73
2022-09-17T05:07:38.211Z,1.40
2022-09-17T05:12:37.904Z,1.88
2022-09-17T05:17:35.537Z,1.50
2022-09-17T05:22:33.177Z,1.60
2022-09-17T05:27:30.849Z,1.90
2022-09-17T05:32:28.139Z,1.77
2022-09-17T05:37:27.769Z,2.60
2022-09-17T05:42:25.298Z,2.03
2022-09-17T05:47:22.678Z,1.55
2022-09-17T05:52:19.968Z,1.70
2022-09-17T05:57:17.788Z,1.77
2022-09-17T06:02:15.189Z,1.70
2022-09-17T06:07:12.712Z,1.90
2022-09-17T06:12:09.917Z,2.38
2022-09-17T06:17:07.152Z,2.13
2022-09-17T06:22:06.010Z,1.50
2022-09-17T06:27:03.222Z,1.98
2022-09-17T06:32:02.863Z,1.70
2022-09-17T06:37:00.083Z,2.20
2022-09-17T06:41:57.365Z,1.52
2022-09-17T06:46:54.674Z,1.52
2022-09-17T06:51:52.016Z,1.70
2022-09-17T06:56:49.435Z,1.85
2022-09-17T07:01:48.210Z,2.47
2022-09-17T07:06:45.748Z,2.53
2022-09-17T07:11:43.168Z,2.08
2022-09-17T07:16:40.658Z,2.45
2022-09-17T07:21:37.820Z,1.83
2022-09-17T07:26:34.956Z,1.65
2022-09-17T07:31:32.238Z,1.30
2022-09-17T07:36:29.620Z,1.70
2022-09-17T07:41:26.921Z,1.95
2022-09-17T07:46:24.297Z,1.90
2022-09-17T07:51:24.348Z,1.60
2022-09-17T07:56:22.652Z,1.40
2022-09-17T08:01:23.534Z,1.40
2022-09-17T08:06:27.124Z,1.25
2022-09-17T08:11:54.638Z,1.58
2022-09-17T08:16:47.645Z,1.52
2022-09-17T08:21:45.268Z,1.55
2022-09-17T08:26:42.630Z,1.92
2022-09-17T08:31:40.091Z,2.20
2022-09-17T08:36:37.437Z,1.85
2022-09-17T08:42:04.319Z,1.60
2022-09-17T08:47:06.547Z,1.60
2022-09-17T08:52:25.068Z,1.25
2022-09-17T08:57:47.017Z,1.77
2022-09-17T09:02:56.410Z,1.90
2022-09-17T09:08:00.890Z,1.70
2022-09-17T09:13:00.672Z,1.83
2022-09-17T09:18:03.524Z,1.48
2022-09-17T09:23:19.374Z,1.40
2022-09-17T09:28:33.250Z,2.00
2022-09-17T09:33:38.304Z,2.63
2022-09-17T09:38:37.755Z,2.13
2022-09-17T09:44:02.658Z,3.42
2022-09-17T09:49:09.051Z,2.25
2022-09-17T09:54:50.139Z,1.95
2022-09-17T09:59:47.357Z,1.70
2022-09-17T10:04:44.548Z,1.80
2022-09-17T10:09:46.420Z,1.73
2022-09-17T10:14:45.867Z,1.73
2022-09-17T10:19:47.539Z,2.00
2022-09-17T10:24:45.142Z,1.92
2022-09-17T10:29:47.484Z,2.80
2022-09-17T10:35:04.712Z,1.85
2022-09-17T10:40:02.374Z,1.27
2022-09-17T10:45:01.197Z,1.75
2022-09-17T10:50:01.621Z,1.90
2022-09-17T10:55:01.928Z,2.25
2022-09-17T11:00:21.669Z,1.38
2022-09-17T11:05:56.741Z,2.35
2022-09-17T11:11:08.728Z,2.50
2022-09-17T11:16:47.062Z,1.92
2022-09-17T11:21:57.231Z,2.08
2022-09-17T11:27:06.653Z,1.38
2022-09-17T11:32:24.967Z,1.80
2022-09-17T11:37:43.722Z,1.60
2022-09-17T11:42:54.251Z,1.40
2022-09-17T11:48:22.873Z,2.03
2022-09-17T11:53:29.099Z,1.60
2022-09-17T11:58:52.819Z,1.77
2022-09-17T12:03:58.584Z,1.25
2022-09-17T12:08:58.785Z,1.55
2022-09-17T12:18:58.242Z,1.35
2022-09-17T12:24:34.548Z,0.98
2022-09-17T12:29:49.953Z,0.90
2022-09-17T12:35:12.729Z,1.20
2022-09-17T12:40:18.904Z,0.90
2022-09-17T12:45:34.037Z,0.70
2022-09-17T12:50:40.188Z,1.27
2022-09-17T12:55:58.793Z,1.30
2022-09-17T13:01:31.828Z,1.15
2022-09-17T13:07:06.586Z,1.27
2022-09-17T13:12:25.551Z,0.90
2022-09-17T13:17:34.376Z,1.10
2022-09-17T13:22:34.639Z,1.50
2022-09-17T13:27:32.547Z,1.80
2022-09-17T13:32:33.639Z,2.90
2022-09-17T13:37:31.257Z,2.28
2022-09-17T13:42:49.327Z,1.65
2022-09-17T13:48:05.794Z,2.03
2022-09-17T13:53:29.592Z,1.60
2022-09-17T13:58:33.740Z,1.70
2022-09-17T14:03:31.316Z,2.03
2022-09-17T14:08:31.279Z,1.35
2022-09-17T14:13:40.620Z,1.27
2022-09-17T14:18:42.400Z,1.45
2022-09-17T14:23:50.260Z,1.25
2022-09-17T14:28:53.280Z,1.23
2022-09-17T14:33:50.840Z,0.85
2022-09-17T14:38:49.510Z,1.13
2022-09-17T14:44:14.761Z,1.40
2022-09-17T14:49:34.571Z,1.15
2022-09-17T14:54:36.280Z,0.70
2022-09-17T14:59:53.645Z,1.20
2022-09-17T15:04:50.956Z,0.77
2022-09-17T15:09:50.393Z,0.90
2022-09-17T15:14:52.999Z,0.85
2022-09-17T15:19:57.757Z,0.80
2022-09-17T15:25:03.320Z,1.33
2022-09-17T15:30:24.223Z,0.68
2022-09-17T15:35:30.422Z,0.77
2022-09-17T15:40:38.287Z,0.95
2022-09-17T15:45:39.227Z,0.80
2022-09-17T15:50:53.295Z,0.50
2022-09-17T15:56:02.696Z,0.68
2022-09-17T16:01:15.261Z,0.95
2022-09-17T16:06:21.838Z,1.20
2022-09-17T16:11:21.218Z,1.35
2022-09-17T16:16:22.506Z,1.00
2022-09-17T16:21:20.609Z,1.00
2022-09-17T16:26:25.373Z,0.90
2022-09-17T16:31:22.829Z,1.63
2022-09-17T16:36:20.267Z,1.30
2022-09-17T16:41:17.746Z,1.40
2022-09-17T16:46:15.456Z,1.08
2022-09-17T16:51:14.148Z,1.00
2022-09-17T16:56:14.246Z,1.23
2022-09-17T17:01:14.642Z,0.80
2022-09-17T17:06:22.321Z,1.30
2022-09-17T17:11:19.672Z,1.20
2022-09-17T17:16:17.012Z,1.30
2022-09-17T17:21:15.166Z,1.40
2022-09-17T17:26:12.360Z,1.80
2022-09-17T17:31:15.849Z,1.67
2022-09-17T17:36:13.196Z,1.75
2022-09-17T17:41:15.254Z,1.70
2022-09-17T17:46:13.195Z,1.63
2022-09-17T17:51:11.308Z,3.80
2022-09-17T17:56:10.311Z,2.47
2022-09-17T18:01:12.915Z,2.20
2022-09-17T18:06:16.780Z,4.22
2022-09-17T18:11:14.090Z,2.95
2022-09-17T18:16:14.105Z,2.95
2022-09-17T18:21:23.050Z,2.30
2022-09-17T18:26:26.269Z,3.17
2022-09-17T18:31:26.815Z,3.67
2022-09-17T18:36:25.872Z,3.97
2022-09-17T18:41:23.126Z,3.30
2022-09-17T18:46:20.695Z,3.63
2022-09-17T18:51:18.055Z,3.30
2022-09-17T18:56:33.532Z,3.58
2022-09-17T19:01:33.863Z,3.25
2022-09-17T19:06:34.530Z,4.75
2022-09-17T19:16:29.064Z,3.40
2022-09-17T19:21:26.696Z,3.00
2022-09-17T19:26:26.229Z,2.97
2022-09-17T19:31:24.371Z,3.00
2022-09-17T19:36:21.600Z,3.40
2022-09-17T19:41:23.464Z,4.05
2022-09-17T19:46:23.100Z,3.17
2022-09-17T19:51:22.151Z,2.70
2022-09-17T19:56:22.787Z,2.35
2022-09-17T20:01:20.689Z,3.65
2022-09-17T20:06:20.899Z,3.20
2022-09-17T20:16:20.759Z,3.17
2022-09-17T20:21:23.784Z,3.50
2022-09-17T20:26:21.736Z,2.90
2022-09-17T20:31:24.553Z,2.33
2022-09-17T20:36:24.792Z,2.75
2022-09-17T20:46:26.087Z,2.67
2022-09-17T20:51:29.536Z,2.53
2022-09-17T20:56:29.405Z,2.15
2022-09-17T21:01:32.984Z,2.25
2022-09-17T21:06:34.080Z,1.95
2022-09-17T21:11:32.077Z,2.88
2022-09-17T21:16:30.012Z,2.58
2022-09-17T21:21:28.167Z,3.55
2022-09-17T21:26:26.016Z,3.30
2022-09-17T21:31:32.804Z,3.08
2022-09-17T21:36:33.443Z,2.72
2022-09-17T21:41:31.117Z,2.72
2022-09-17T21:46:32.772Z,2.08
2022-09-17T21:51:37.395Z,2.55
2022-09-17T21:56:35.463Z,2.38
2022-09-17T22:01:40.171Z,2.15
2022-09-17T22:06:38.358Z,2.70
2022-09-17T22:11:37.966Z,2.38
2022-09-17T22:16:40.689Z,2.58
2022-09-17T22:21:44.774Z,1.55
2022-09-17T22:26:44.573Z,1.90
2022-09-17T22:31:42.562Z,2.15
2022-09-17T22:36:40.176Z,2.22
2022-09-17T22:41:44.484Z,2.45
2022-09-17T22:46:42.372Z,1.95
2022-09-17T22:51:40.541Z,2.00
2022-09-17T22:56:38.184Z,2.20
2022-09-17T23:01:36.757Z,1.90
2022-09-17T23:06:39.504Z,1.83
2022-09-17T23:11:40.015Z,2.58
2022-09-17T23:16:40.479Z,2.20
2022-09-17T23:21:38.572Z,1.83
2022-09-17T23:26:36.224Z,2.30
2022-09-17T23:31:37.194Z,1.98
2022-09-17T23:36:37.404Z,1.90
2022-09-17T23:46:41.006Z,1.42
2022-09-17T23:51:38.512Z,1.30
2022-09-17T23:56:35.932Z,1.13
